createdAt,value
2023-02-02T00:01:53.895Z,84.04
2023-02-02T00:04:33.524Z,84.74
2023-02-02T00:07:02.826Z,84.00
2023-02-02T00:09:32.059Z,84.27
2023-02-02T00:12:01.269Z,83.89
2023-02-02T00:14:28.525Z,83.73
2023-02-02T00:16:58.017Z,84.42
2023-02-02T00:19:33.510Z,84.26
2023-02-02T00:22:00.425Z,84.58
2023-02-02T00:24:27.507Z,84.13
2023-02-02T00:26:59.800Z,83.79
2023-02-02T00:29:30.031Z,84.46
2023-02-02T00:31:57.322Z,84.39
2023-02-02T00:34:24.657Z,83.82
2023-02-02T00:36:52.059Z,83.58
2023-02-02T00:39:23.149Z,83.07
2023-02-02T00:41:50.136Z,83.40
2023-02-02T00:44:35.586Z,83.85
2023-02-02T00:47:03.859Z,84.66
2023-02-02T00:49:31.041Z,84.81
2023-02-02T00:51:58.219Z,84.81
2023-02-02T00:54:25.374Z,84.44
2023-02-02T00:56:56.400Z,85.34
2023-02-02T00:59:23.798Z,85.37
2023-02-02T01:01:51.449Z,84.96
2023-02-02T01:04:18.541Z,85.28
2023-02-02T01:06:47.874Z,85.03
2023-02-02T01:09:14.933Z,84.73
2023-02-02T01:11:42.287Z,84.25
2023-02-02T01:14:09.292Z,84.39
2023-02-02T01:16:36.410Z,84.75
2023-02-02T01:19:03.999Z,84.75
2023-02-02T01:21:31.029Z,85.20
2023-02-02T01:23:58.117Z,85.43
2023-02-02T01:26:25.133Z,85.21
2023-02-02T01:28:52.143Z,85.38
2023-02-02T01:31:21.328Z,84.91
2023-02-02T01:33:50.153Z,84.83
2023-02-02T01:36:21.558Z,84.99
2023-02-02T01:38:49.761Z,84.88
2023-02-02T01:41:22.120Z,85.63
2023-02-02T01:44:45.665Z,85.44
2023-02-02T01:47:13.375Z,85.49
2023-02-02T01:49:41.412Z,85.44
2023-02-02T01:52:10.660Z,85.75
2023-02-02T01:54:58.399Z,85.82
2023-02-02T01:57:36.352Z,86.32
2023-02-02T02:00:09.028Z,85.73
2023-02-02T02:02:45.948Z,86.10
2023-02-02T02:05:19.852Z,85.97
2023-02-02T02:07:50.477Z,85.70
2023-02-02T02:10:18.775Z,86.04
2023-02-02T02:12:48.643Z,86.13
2023-02-02T02:15:34.561Z,86.11
2023-02-02T02:18:35.275Z,85.79
2023-02-02T02:22:15.831Z,85.58
2023-02-02T02:25:51.852Z,86.23
2023-02-02T02:29:03.122Z,85.64
2023-02-02T02:31:56.035Z,85.51
2023-02-02T02:34:44.749Z,85.82
2023-02-02T02:37:38.891Z,86.25
2023-02-02T02:40:34.626Z,84.98
2023-02-02T02:43:15.597Z,85.34
2023-02-02T02:45:44.809Z,85.69
2023-02-02T02:48:13.642Z,85.56
2023-02-02T02:50:40.768Z,85.66
2023-02-02T02:53:16.547Z,85.04
2023-02-02T02:56:25.102Z,86.07
2023-02-02T02:59:05.307Z,85.37
2023-02-02T03:02:08.746Z,85.63
2023-02-02T03:05:08.992Z,85.27
2023-02-02T03:07:42.935Z,85.14
2023-02-02T03:10:13.787Z,85.29
2023-02-02T03:12:49.350Z,84.80
2023-02-02T03:15:17.977Z,85.71
2023-02-02T03:17:52.503Z,85.10
2023-02-02T03:20:22.853Z,84.28
2023-02-02T03:22:51.302Z,85.19
2023-02-02T03:25:18.809Z,84.21
2023-02-02T03:27:45.831Z,84.45
2023-02-02T03:30:14.167Z,83.79
2023-02-02T03:32:41.730Z,83.42
2023-02-02T03:35:11.172Z,83.61
2023-02-02T03:37:38.513Z,84.37
2023-02-02T03:40:07.108Z,83.90
2023-02-02T03:42:34.139Z,84.25
2023-02-02T03:45:01.152Z,83.55
2023-02-02T03:47:29.929Z,84.46
2023-02-02T03:49:57.510Z,84.13
2023-02-02T03:52:26.683Z,82.87
2023-02-02T03:54:53.911Z,83.72
2023-02-02T03:57:20.814Z,83.11
2023-02-02T03:59:47.781Z,82.91
2023-02-02T04:02:14.818Z,83.78
2023-02-02T04:04:41.736Z,83.17
2023-02-02T04:07:08.644Z,83.43
2023-02-02T04:09:35.632Z,83.56
2023-02-02T04:12:02.590Z,84.62
2023-02-02T04:14:29.445Z,84.02
2023-02-02T04:16:56.329Z,84.94
2023-02-02T04:19:25.997Z,85.27
2023-02-02T04:21:53.597Z,85.02
2023-02-02T04:24:20.528Z,84.92
2023-02-02T04:26:47.728Z,83.90
2023-02-02T04:29:14.940Z,84.72
2023-02-02T04:31:42.543Z,84.63
2023-02-02T04:34:09.552Z,84.32
2023-02-02T04:36:36.410Z,84.48
2023-02-02T04:39:03.929Z,83.83
2023-02-02T04:41:32.312Z,82.92
2023-02-02T04:43:59.192Z,83.45
2023-02-02T04:46:26.609Z,83.50
2023-02-02T04:48:53.548Z,83.08
2023-02-02T04:51:20.421Z,82.46
2023-02-02T04:53:47.372Z,83.04
2023-02-02T04:56:18.917Z,82.10
2023-02-02T04:58:46.402Z,81.77
2023-02-02T05:01:20.196Z,82.12
2023-02-02T05:03:48.527Z,81.62
2023-02-02T05:06:16.401Z,81.77
2023-02-02T05:08:44.120Z,81.59
2023-02-02T05:11:18.510Z,81.50
2023-02-02T05:13:50.052Z,80.97
2023-02-02T05:16:17.910Z,81.31
2023-02-02T05:18:59.469Z,82.13
2023-02-02T05:21:26.942Z,80.56
2023-02-02T05:23:53.911Z,80.82
2023-02-02T05:26:26.823Z,81.78
2023-02-02T05:28:54.171Z,81.42
2023-02-02T05:31:21.245Z,81.09
2023-02-02T05:33:48.329Z,81.07
2023-02-02T05:36:15.299Z,81.47
2023-02-02T05:38:42.263Z,81.07
2023-02-02T05:41:09.268Z,81.14
2023-02-02T05:43:36.211Z,82.15
2023-02-02T05:46:04.061Z,81.52
2023-02-02T05:48:31.101Z,82.08
2023-02-02T05:51:11.374Z,82.11
2023-02-02T05:53:38.384Z,80.74
2023-02-02T05:56:05.847Z,81.22
2023-02-02T05:58:32.943Z,80.79
2023-02-02T06:01:00.256Z,80.92
2023-02-02T06:03:27.631Z,81.88
2023-02-02T06:05:54.686Z,82.15
2023-02-02T06:08:21.771Z,82.43
2023-02-02T06:10:49.394Z,81.64
2023-02-02T06:13:16.287Z,82.75
2023-02-02T06:15:43.448Z,82.33
2023-02-02T06:18:11.052Z,82.24
2023-02-02T06:20:38.787Z,81.18
2023-02-02T06:23:06.854Z,81.92
2023-02-02T06:25:34.544Z,82.08
2023-02-02T06:28:01.721Z,81.94
2023-02-02T06:30:29.040Z,82.95
2023-02-02T06:32:56.092Z,82.52
2023-02-02T06:35:23.368Z,83.06
2023-02-02T06:37:50.483Z,83.14
2023-02-02T06:40:20.881Z,82.80
2023-02-02T06:42:47.842Z,83.07
2023-02-02T06:45:15.086Z,84.52
2023-02-02T06:47:42.664Z,83.64
2023-02-02T06:50:10.642Z,84.55
2023-02-02T06:52:37.575Z,84.17
2023-02-02T06:55:05.119Z,83.44
2023-02-02T06:57:32.352Z,83.76
2023-02-02T06:59:59.701Z,84.25
2023-02-02T07:02:26.996Z,84.00
2023-02-02T07:04:54.136Z,84.70
2023-02-02T07:07:21.218Z,83.66
2023-02-02T07:09:48.160Z,83.58
2023-02-02T07:12:27.558Z,83.77
2023-02-02T07:14:54.684Z,83.97
2023-02-02T07:17:23.745Z,84.17
2023-02-02T07:19:51.152Z,84.30
2023-02-02T07:22:18.409Z,83.90
2023-02-02T07:24:45.295Z,83.76
2023-02-02T07:27:12.347Z,83.96
2023-02-02T07:29:39.439Z,83.89
2023-02-02T07:32:06.557Z,83.70
2023-02-02T07:34:33.885Z,84.29
2023-02-02T07:37:00.944Z,84.36
2023-02-02T07:39:27.863Z,84.12
2023-02-02T07:41:55.157Z,84.06
2023-02-02T07:44:30.908Z,83.75
2023-02-02T07:46:58.417Z,84.74
2023-02-02T07:49:25.717Z,83.58
2023-02-02T07:51:53.394Z,83.45
2023-02-02T07:54:21.519Z,84.22
2023-02-02T07:56:48.833Z,84.32
2023-02-02T07:59:16.480Z,83.53
2023-02-02T08:01:43.684Z,84.53
2023-02-02T08:04:10.734Z,84.18
2023-02-02T08:06:40.019Z,84.11
2023-02-02T08:09:09.235Z,84.41
2023-02-02T08:11:39.964Z,84.08
2023-02-02T08:14:07.961Z,84.88
2023-02-02T08:16:36.155Z,83.96
2023-02-02T08:19:03.703Z,85.12
2023-02-02T08:21:34.882Z,85.16
2023-02-02T08:24:03.250Z,85.40
2023-02-02T08:26:32.097Z,85.38
2023-02-02T08:29:03.694Z,85.24
2023-02-02T08:31:38.027Z,86.02
2023-02-02T08:34:06.138Z,85.16
2023-02-02T08:36:35.589Z,84.98
2023-02-02T08:39:07.492Z,85.51
2023-02-02T08:41:35.066Z,86.29
2023-02-02T08:44:05.248Z,84.86
2023-02-02T08:46:33.134Z,85.27
2023-02-02T08:49:00.252Z,85.48
2023-02-02T08:51:27.743Z,85.33
2023-02-02T08:53:55.119Z,84.55
2023-02-02T08:56:23.641Z,83.74
2023-02-02T08:58:56.236Z,84.94
2023-02-02T09:01:27.090Z,84.63
2023-02-02T09:04:00.327Z,84.19
2023-02-02T09:06:39.303Z,83.77
2023-02-02T09:09:11.156Z,83.24
2023-02-02T09:11:40.727Z,83.86
2023-02-02T09:14:09.249Z,83.82
2023-02-02T09:16:36.681Z,83.38
2023-02-02T09:19:05.239Z,83.97
2023-02-02T09:21:36.977Z,84.18
2023-02-02T09:24:09.941Z,84.02
2023-02-02T09:26:38.794Z,84.09
2023-02-02T09:29:08.489Z,83.94
2023-02-02T09:31:37.639Z,83.70
2023-02-02T09:34:08.767Z,82.77
2023-02-02T09:36:38.035Z,82.63
2023-02-02T09:39:06.511Z,83.14
2023-02-02T09:41:39.795Z,83.19
2023-02-02T09:44:30.230Z,83.04
2023-02-02T09:47:17.647Z,82.44
2023-02-02T09:50:25.942Z,82.75
2023-02-02T09:53:05.954Z,82.21
2023-02-02T09:55:38.924Z,82.67
2023-02-02T09:58:30.385Z,82.09
2023-02-02T10:01:15.824Z,81.89
2023-02-02T10:04:13.647Z,81.76
2023-02-02T10:06:45.097Z,81.92
2023-02-02T10:09:40.544Z,81.90
2023-02-02T10:12:40.911Z,81.48
2023-02-02T10:15:24.391Z,81.40
2023-02-02T10:18:00.805Z,81.72
2023-02-02T10:21:28.844Z,81.63
2023-02-02T10:23:58.442Z,81.45
2023-02-02T10:26:46.122Z,80.70
2023-02-02T10:29:28.070Z,80.30
2023-02-02T10:32:22.640Z,79.92
2023-02-02T10:35:25.233Z,80.36
2023-02-02T10:38:42.724Z,79.84
2023-02-02T10:41:32.341Z,79.27
2023-02-02T10:44:18.055Z,79.49
2023-02-02T10:46:54.054Z,78.84
2023-02-02T10:49:33.806Z,76.66
2023-02-02T10:52:17.645Z,77.16
2023-02-02T10:58:12.259Z,75.53
2023-02-02T11:00:48.616Z,76.22
2023-02-02T11:03:20.204Z,75.98
2023-02-02T11:06:06.010Z,76.16
2023-02-02T11:08:45.463Z,76.00
2023-02-02T11:11:33.273Z,76.05
2023-02-02T11:14:09.449Z,75.24
2023-02-02T11:16:45.195Z,74.35
2023-02-02T11:19:18.082Z,74.50
2023-02-02T11:21:54.930Z,74.35
2023-02-02T11:24:28.482Z,72.92
2023-02-02T11:27:07.399Z,72.52
2023-02-02T11:29:40.513Z,71.51
2023-02-02T11:32:27.466Z,70.96
2023-02-02T11:35:17.839Z,70.49
2023-02-02T11:38:13.869Z,68.91
2023-02-02T11:40:53.053Z,67.37
2023-02-02T11:43:33.452Z,68.74
2023-02-02T11:46:08.152Z,66.89
2023-02-02T11:48:39.374Z,67.44
2023-02-02T11:51:08.385Z,67.14
2023-02-02T11:53:41.494Z,65.59
2023-02-02T11:56:29.411Z,64.06
2023-02-02T11:59:03.789Z,64.55
2023-02-02T12:01:39.857Z,63.47
2023-02-02T12:04:25.857Z,61.31
2023-02-02T12:06:52.983Z,61.34
2023-02-02T12:09:24.069Z,59.74
2023-02-02T12:12:03.513Z,60.33
2023-02-02T12:14:45.962Z,61.01
2023-02-02T12:17:41.829Z,59.64
2023-02-02T12:20:29.768Z,58.22
2023-02-02T12:23:14.740Z,58.28
2023-02-02T12:26:00.569Z,58.03
2023-02-02T12:28:58.688Z,57.19
2023-02-02T12:31:48.942Z,57.23
2023-02-02T12:35:00.703Z,55.18
2023-02-02T12:38:06.232Z,54.11
2023-02-02T12:40:55.823Z,54.30
2023-02-02T12:43:46.429Z,54.17
2023-02-02T12:46:22.569Z,55.78
2023-02-02T12:48:58.462Z,55.76
2023-02-02T12:52:09.961Z,55.61
2023-02-02T12:55:02.560Z,53.85
2023-02-02T12:57:59.704Z,53.94
2023-02-02T13:00:42.755Z,54.34
2023-02-02T13:03:28.253Z,52.54
2023-02-02T13:06:21.468Z,50.82
2023-02-02T13:08:57.970Z,51.88
2023-02-02T13:11:44.861Z,51.15
2023-02-02T13:14:17.022Z,51.11
2023-02-02T13:16:50.543Z,51.38
2023-02-02T13:19:33.382Z,51.43
2023-02-02T13:22:04.970Z,51.95
2023-02-02T13:24:37.371Z,50.82
2023-02-02T13:27:07.628Z,50.96
2023-02-02T13:29:48.212Z,50.23
2023-02-02T13:32:29.297Z,50.50
2023-02-02T13:35:18.669Z,50.46
2023-02-02T13:37:59.176Z,51.43
2023-02-02T13:40:43.935Z,51.73
2023-02-02T13:43:20.061Z,50.27
2023-02-02T13:46:12.319Z,50.29
2023-02-02T13:49:13.407Z,47.30
2023-02-02T13:52:15.025Z,49.60
2023-02-02T13:55:08.756Z,49.44
2023-02-02T13:57:58.597Z,48.02
2023-02-02T14:00:33.616Z,48.03
2023-02-02T14:03:06.231Z,47.63
2023-02-02T14:05:41.593Z,49.04
2023-02-02T14:08:21.840Z,49.15
2023-02-02T14:10:51.852Z,49.28
2023-02-02T14:13:44.488Z,50.26
2023-02-02T14:16:33.037Z,47.32
2023-02-02T14:19:12.878Z,47.11
2023-02-02T14:21:39.786Z,48.83
2023-02-02T14:24:26.223Z,49.55
2023-02-02T14:26:59.723Z,48.64
2023-02-02T14:29:31.486Z,48.33
2023-02-02T14:32:02.798Z,48.49
2023-02-02T14:34:34.521Z,48.12
2023-02-02T14:37:29.876Z,48.40
2023-02-02T14:40:12.930Z,48.66
2023-02-02T14:43:39.471Z,48.79
2023-02-02T14:46:15.901Z,48.41
2023-02-02T14:49:03.062Z,48.08
2023-02-02T14:51:33.421Z,48.48
2023-02-02T14:54:06.996Z,48.88
2023-02-02T14:56:52.354Z,48.93
2023-02-02T14:59:28.956Z,48.74
2023-02-02T15:02:15.752Z,49.80
2023-02-02T15:04:47.941Z,49.51
2023-02-02T15:07:52.127Z,50.26
2023-02-02T15:11:01.170Z,50.16
2023-02-02T15:13:37.653Z,51.19
2023-02-02T15:16:18.972Z,50.63
2023-02-02T15:18:58.233Z,51.84
2023-02-02T15:21:28.107Z,52.58
2023-02-02T15:23:57.213Z,52.44
2023-02-02T15:26:37.902Z,53.16
2023-02-02T15:29:19.710Z,53.61
2023-02-02T15:31:53.565Z,54.45
2023-02-02T15:34:39.077Z,54.69
2023-02-02T15:37:10.746Z,53.89
2023-02-02T15:39:43.459Z,54.89
2023-02-02T15:42:37.949Z,55.12
2023-02-02T15:45:05.799Z,55.22
2023-02-02T15:47:40.612Z,54.74
2023-02-02T15:50:20.573Z,55.12
2023-02-02T15:52:50.709Z,54.89
2023-02-02T15:55:33.668Z,54.89
2023-02-02T15:58:02.939Z,54.79
2023-02-02T16:00:35.237Z,54.39
2023-02-02T16:03:15.340Z,54.40
2023-02-02T16:05:48.142Z,54.79
2023-02-02T16:08:26.189Z,54.10
2023-02-02T16:11:05.386Z,54.15
2023-02-02T16:13:33.649Z,53.90
2023-02-02T16:16:20.128Z,54.08
2023-02-02T16:18:47.734Z,54.35
2023-02-02T16:21:24.161Z,53.29
2023-02-02T16:23:55.976Z,52.69
2023-02-02T16:26:29.069Z,52.96
2023-02-02T16:28:57.111Z,53.39
2023-02-02T16:31:25.825Z,54.04
2023-02-02T16:33:52.916Z,53.06
2023-02-02T16:36:26.233Z,53.04
2023-02-02T16:38:55.318Z,52.99
2023-02-02T16:41:35.011Z,52.61
2023-02-02T16:44:36.328Z,53.73
2023-02-02T16:47:07.339Z,53.37
2023-02-02T16:49:35.292Z,53.71
2023-02-02T16:52:21.849Z,52.67
2023-02-02T16:54:55.569Z,53.55
2023-02-02T16:57:34.370Z,52.72
2023-02-02T17:00:09.310Z,53.77
2023-02-02T17:02:41.036Z,51.93
2023-02-02T17:05:21.768Z,51.40
2023-02-02T17:08:05.656Z,52.08
2023-02-02T17:10:43.793Z,51.03
2023-02-02T17:13:36.658Z,50.75
2023-02-02T17:16:04.308Z,51.85
2023-02-02T17:18:31.646Z,50.91
2023-02-02T17:21:07.357Z,50.07
2023-02-02T17:23:36.933Z,49.93
2023-02-02T17:26:07.590Z,49.27
2023-02-02T17:28:38.201Z,49.89
2023-02-02T17:31:11.960Z,49.30
2023-02-02T17:33:39.898Z,48.90
2023-02-02T17:36:07.620Z,49.42
2023-02-02T17:38:34.719Z,49.03
2023-02-02T17:41:03.458Z,48.92
2023-02-02T17:43:32.701Z,49.11
2023-02-02T17:46:00.273Z,49.20
2023-02-02T17:48:27.776Z,49.37
2023-02-02T17:50:55.136Z,49.14
2023-02-02T17:53:22.967Z,49.28
2023-02-02T17:55:51.426Z,49.76
2023-02-02T17:58:19.095Z,49.91
2023-02-02T18:00:53.529Z,49.31
2023-02-02T18:03:26.325Z,50.00
2023-02-02T18:05:53.877Z,51.10
2023-02-02T18:08:20.925Z,50.28
2023-02-02T18:10:47.912Z,50.76
2023-02-02T18:13:17.360Z,50.42
2023-02-02T18:15:44.423Z,50.97
2023-02-02T18:18:12.578Z,50.69
2023-02-02T18:20:47.090Z,51.62
2023-02-02T18:23:15.811Z,51.58
2023-02-02T18:25:43.718Z,51.74
2023-02-02T18:28:11.110Z,51.64
2023-02-02T18:30:40.393Z,52.09
2023-02-02T18:33:11.809Z,53.10
2023-02-02T18:35:47.419Z,52.48
2023-02-02T18:38:14.880Z,52.84
2023-02-02T18:40:42.086Z,53.58
2023-02-02T18:43:09.517Z,53.06
2023-02-02T18:45:36.833Z,53.52
2023-02-02T18:48:04.433Z,53.95
2023-02-02T18:50:31.425Z,54.02
2023-02-02T18:52:58.764Z,54.12
2023-02-02T18:55:26.949Z,54.02
2023-02-02T18:57:54.293Z,54.54
2023-02-02T19:00:22.143Z,54.20
2023-02-02T19:02:49.448Z,54.55
2023-02-02T19:05:35.641Z,55.02
2023-02-02T19:08:04.123Z,54.49
2023-02-02T19:10:31.644Z,55.01
2023-02-02T19:13:19.193Z,55.12
2023-02-02T19:15:49.726Z,55.13
2023-02-02T19:18:23.377Z,55.75
2023-02-02T19:20:52.531Z,55.79
2023-02-02T19:23:23.565Z,55.81
2023-02-02T19:25:54.247Z,55.64
2023-02-02T19:28:31.470Z,55.78
2023-02-02T19:31:01.858Z,56.27
2023-02-02T19:33:39.961Z,56.07
2023-02-02T19:36:21.362Z,56.08
2023-02-02T19:38:52.888Z,56.47
2023-02-02T19:41:24.064Z,57.02
2023-02-02T19:44:11.617Z,56.91
2023-02-02T19:46:44.509Z,56.82
2023-02-02T19:49:16.945Z,57.37
2023-02-02T19:51:53.729Z,57.71
2023-02-02T19:54:32.841Z,57.81
2023-02-02T19:57:13.408Z,57.39
2023-02-02T19:59:43.247Z,57.83
2023-02-02T20:02:44.019Z,57.58
2023-02-02T20:05:10.953Z,58.31
2023-02-02T20:07:41.490Z,57.96
2023-02-02T20:10:21.483Z,58.05
2023-02-02T20:12:50.072Z,58.34
2023-02-02T20:15:36.701Z,58.09
2023-02-02T20:18:18.962Z,58.64
2023-02-02T20:20:58.449Z,58.57
2023-02-02T20:23:45.837Z,58.01
2023-02-02T20:26:36.688Z,57.96
2023-02-02T20:29:39.048Z,58.34
2023-02-02T20:32:19.430Z,58.16
2023-02-02T20:34:46.751Z,58.34
2023-02-02T20:37:13.681Z,57.83
2023-02-02T20:39:42.102Z,58.11
2023-02-02T20:42:09.044Z,58.29
2023-02-02T20:44:36.311Z,58.27
2023-02-02T20:47:03.646Z,58.79
2023-02-02T20:49:31.836Z,58.85
2023-02-02T20:52:02.229Z,58.45
2023-02-02T20:54:29.798Z,58.94
2023-02-02T20:56:56.726Z,58.71
2023-02-02T20:59:23.974Z,59.01
2023-02-02T21:01:51.272Z,58.08
2023-02-02T21:04:19.256Z,57.58
2023-02-02T21:06:48.123Z,57.40
2023-02-02T21:09:16.712Z,57.35
2023-02-02T21:11:43.929Z,57.59
2023-02-02T21:14:10.987Z,57.35
2023-02-02T21:16:38.068Z,57.72
2023-02-02T21:19:05.853Z,57.98
2023-02-02T21:21:32.931Z,57.93
2023-02-02T21:24:00.891Z,58.29
2023-02-02T21:26:30.551Z,57.76
2023-02-02T21:28:58.876Z,58.55
2023-02-02T21:31:26.734Z,58.42
2023-02-02T21:33:54.116Z,58.25
2023-02-02T21:36:34.650Z,58.39
2023-02-02T21:39:33.429Z,58.76
2023-02-02T21:42:09.267Z,58.83
2023-02-02T21:44:52.522Z,58.68
2023-02-02T21:47:33.278Z,58.38
2023-02-02T21:50:28.088Z,58.59
2023-02-02T21:53:18.163Z,58.98
2023-02-02T21:55:59.879Z,58.83
2023-02-02T21:58:35.040Z,58.45
2023-02-02T22:01:24.200Z,58.72
2023-02-02T22:03:51.585Z,58.65
2023-02-02T22:06:42.255Z,59.13
2023-02-02T22:09:12.126Z,59.43
2023-02-02T22:11:47.269Z,59.23
2023-02-02T22:14:19.025Z,59.42
2023-02-02T22:16:50.317Z,59.08
2023-02-02T22:19:38.735Z,59.29
2023-02-02T22:22:08.592Z,59.88
2023-02-02T22:24:36.804Z,59.45
2023-02-02T22:27:03.830Z,60.57
2023-02-02T22:29:35.356Z,60.32
2023-02-02T22:32:02.409Z,60.70
2023-02-02T22:34:29.447Z,60.44
2023-02-02T22:36:56.387Z,60.46
2023-02-02T22:39:23.311Z,60.37
2023-02-02T22:41:50.294Z,60.38
2023-02-02T22:44:17.165Z,60.26
2023-02-02T22:46:44.189Z,60.23
2023-02-02T22:49:11.242Z,60.00
2023-02-02T22:51:38.184Z,60.66
2023-02-02T22:54:05.305Z,60.47
2023-02-02T22:56:32.316Z,60.80
2023-02-02T22:59:01.409Z,60.96
2023-02-02T23:01:28.520Z,61.36
2023-02-02T23:03:55.927Z,61.49
2023-02-02T23:06:23.087Z,61.70
2023-02-02T23:08:50.359Z,62.24
2023-02-02T23:11:17.378Z,62.29
2023-02-02T23:13:44.287Z,62.36
2023-02-02T23:16:11.353Z,62.81
2023-02-02T23:18:38.378Z,63.71
2023-02-02T23:21:05.706Z,63.84
2023-02-02T23:23:32.648Z,64.21
2023-02-02T23:25:59.541Z,64.10
2023-02-02T23:28:26.433Z,64.65
2023-02-02T23:31:12.217Z,64.76
2023-02-02T23:33:39.356Z,64.81
2023-02-02T23:36:06.978Z,64.31
2023-02-02T23:38:33.948Z,64.88
2023-02-02T23:41:00.874Z,64.86
2023-02-02T23:43:28.412Z,65.77
2023-02-02T23:45:55.463Z,65.44
2023-02-02T23:48:22.517Z,65.65
2023-02-02T23:50:49.475Z,65.13
2023-02-02T23:53:17.215Z,65.63
2023-02-02T23:55:48.120Z,65.52
2023-02-02T23:58:15.983Z,65.54
